createdAt,value
2023-02-20T00:05:00.552Z,12.00
2023-02-20T00:10:09.812Z,9.00
2023-02-20T00:15:22.147Z,10.10
2023-02-20T00:20:30.483Z,6.40
2023-02-20T00:25:37.618Z,11.20
2023-02-20T00:30:45.195Z,8.30
2023-02-20T00:35:54.492Z,16.70
2023-02-20T00:41:01.919Z,14.30
2023-02-20T00:46:12.308Z,7.70
2023-02-20T00:51:21.527Z,16.50
2023-02-20T00:56:29.973Z,19.00
2023-02-20T01:01:37.265Z,6.70
2023-02-20T01:06:45.276Z,17.10
2023-02-20T01:11:52.565Z,15.50
2023-02-20T01:17:02.673Z,7.40
2023-02-20T01:22:10.134Z,10.00
2023-02-20T01:27:17.299Z,13.50
2023-02-20T01:32:24.460Z,10.50
2023-02-20T01:37:32.181Z,9.50
2023-02-20T01:42:39.356Z,10.20
2023-02-20T01:47:46.646Z,6.40
2023-02-20T01:53:00.054Z,4.20
2023-02-20T01:58:11.256Z,17.10
2023-02-20T02:03:22.050Z,8.30
2023-02-20T02:08:35.745Z,19.00
2023-02-20T02:13:44.032Z,9.20
2023-02-20T02:19:00.335Z,8.80
2023-02-20T02:24:43.784Z,6.20
2023-02-20T02:30:25.881Z,6.70
2023-02-20T02:36:10.918Z,11.20
2023-02-20T02:41:23.537Z,11.10
2023-02-20T02:46:41.146Z,15.00
2023-02-20T02:51:51.145Z,10.00
2023-02-20T02:57:24.079Z,12.70
2023-02-20T03:02:34.252Z,11.90
2023-02-20T03:07:45.559Z,12.20
2023-02-20T03:12:53.882Z,6.20
2023-02-20T03:18:11.953Z,10.20
2023-02-20T03:23:24.888Z,18.30
2023-02-20T03:28:39.678Z,9.80
2023-02-20T03:34:09.652Z,15.00
2023-02-20T03:39:48.324Z,11.90
2023-02-20T03:44:58.212Z,13.80
2023-02-20T03:50:10.164Z,9.50
2023-02-20T03:55:21.433Z,10.90
2023-02-20T04:00:34.203Z,11.00
2023-02-20T04:05:46.006Z,9.60
2023-02-20T04:10:59.226Z,10.90
2023-02-20T04:16:08.507Z,13.10
2023-02-20T04:21:23.217Z,16.10
2023-02-20T04:26:31.092Z,7.60
2023-02-20T04:31:39.826Z,10.20
2023-02-20T04:36:51.867Z,15.00
2023-02-20T04:41:59.794Z,13.80
2023-02-20T04:47:10.089Z,8.40
2023-02-20T04:52:21.883Z,13.30
2023-02-20T04:57:29.387Z,7.30
2023-02-20T05:07:43.378Z,5.10
2023-02-20T05:12:50.914Z,7.80
2023-02-20T05:17:58.189Z,17.30
2023-02-20T05:23:29.286Z,11.70
2023-02-20T05:28:38.174Z,10.40
2023-02-20T05:33:45.288Z,6.80
2023-02-20T05:38:52.486Z,10.10
2023-02-20T05:44:00.133Z,15.70
2023-02-20T05:49:07.531Z,11.40
2023-02-20T05:54:14.880Z,13.40
2023-02-20T05:59:24.924Z,11.40
2023-02-20T06:04:32.441Z,7.60
2023-02-20T06:09:42.994Z,10.00
2023-02-20T06:14:50.126Z,11.30
2023-02-20T06:19:57.392Z,8.80
2023-02-20T06:25:04.696Z,9.80
2023-02-20T06:30:14.233Z,11.60
2023-02-20T06:35:21.588Z,14.40
2023-02-20T06:40:28.811Z,11.80
2023-02-20T06:45:35.952Z,7.40
2023-02-20T06:50:43.969Z,9.30
2023-02-20T06:55:51.139Z,10.00
2023-02-20T07:00:59.818Z,12.10
2023-02-20T07:06:07.894Z,10.70
2023-02-20T07:16:22.230Z,20.40
2023-02-20T07:21:29.517Z,16.50
2023-02-20T07:26:39.601Z,13.60
2023-02-20T07:31:47.406Z,10.10
2023-02-20T07:36:54.718Z,16.10
2023-02-20T07:42:05.273Z,11.80
2023-02-20T07:47:32.917Z,9.00
2023-02-20T07:52:40.226Z,17.10
2023-02-20T07:57:50.399Z,17.60
2023-02-20T08:02:59.629Z,15.10
2023-02-20T08:08:07.143Z,13.70
2023-02-20T08:13:14.454Z,13.00
2023-02-20T08:18:23.805Z,18.70
2023-02-20T08:23:31.456Z,15.10
2023-02-20T08:28:38.953Z,17.70
2023-02-20T08:33:46.156Z,12.50
2023-02-20T08:38:55.113Z,10.90
2023-02-20T08:44:02.377Z,16.20
2023-02-20T08:49:09.534Z,14.60
2023-02-20T08:54:17.849Z,15.00
2023-02-20T08:59:25.100Z,16.00
2023-02-20T09:04:32.337Z,15.30
2023-02-20T09:09:39.808Z,18.90
2023-02-20T09:14:47.350Z,11.10
2023-02-20T09:19:54.710Z,9.90
2023-02-20T09:25:02.062Z,10.10
2023-02-20T09:30:11.069Z,13.30
2023-02-20T09:35:21.846Z,9.80
2023-02-20T09:40:31.454Z,10.10
2023-02-20T09:45:42.542Z,13.90
2023-02-20T09:50:55.599Z,16.70
2023-02-20T09:56:05.350Z,11.10
2023-02-20T10:01:16.080Z,13.10
2023-02-20T10:06:27.184Z,12.40
2023-02-20T10:11:44.939Z,14.20
2023-02-20T10:16:59.994Z,16.40
2023-02-20T10:22:14.802Z,10.30
2023-02-20T10:27:33.739Z,11.70
2023-02-20T10:32:48.866Z,14.20
2023-02-20T10:38:06.254Z,13.70
2023-02-20T10:43:22.178Z,18.70
2023-02-20T10:48:32.969Z,18.30
2023-02-20T10:53:48.221Z,13.30
2023-02-20T10:59:06.506Z,16.00
2023-02-20T11:04:17.153Z,13.30
2023-02-20T11:09:29.796Z,15.50
2023-02-20T11:14:47.192Z,34.20
2023-02-20T11:19:56.980Z,14.00
2023-02-20T11:25:28.062Z,17.80
2023-02-20T11:30:38.888Z,20.90
2023-02-20T11:35:48.234Z,17.00
2023-02-20T11:41:10.141Z,23.40
2023-02-20T11:46:21.935Z,17.80
2023-02-20T11:51:41.282Z,14.70
2023-02-20T11:57:04.780Z,19.80
2023-02-20T12:02:28.772Z,16.50
2023-02-20T12:07:40.283Z,28.30
2023-02-20T12:12:47.530Z,19.00
2023-02-20T12:18:30.697Z,18.00
2023-02-20T12:23:46.311Z,16.00
2023-02-20T12:29:06.213Z,23.40
2023-02-20T12:34:30.012Z,16.20
2023-02-20T12:39:45.673Z,18.50
2023-02-20T12:45:12.783Z,12.40
2023-02-20T12:50:42.080Z,14.90
2023-02-20T12:55:59.891Z,14.80
2023-02-20T13:01:11.363Z,16.50
2023-02-20T13:06:30.408Z,13.60
2023-02-20T13:11:43.053Z,14.00
2023-02-20T13:16:57.778Z,12.30
2023-02-20T13:22:07.619Z,18.00
2023-02-20T13:27:32.628Z,19.60
2023-02-20T13:32:40.250Z,17.60
2023-02-20T13:38:15.472Z,17.20
2023-02-20T13:43:29.587Z,12.40
2023-02-20T13:48:46.222Z,16.60
2023-02-20T13:53:56.032Z,13.40
2023-02-20T13:59:03.281Z,14.20
2023-02-20T14:04:12.004Z,19.30
2023-02-20T14:09:24.456Z,12.50
2023-02-20T14:14:37.667Z,12.80
2023-02-20T14:20:05.279Z,13.70
2023-02-20T14:26:24.131Z,12.10
2023-02-20T14:31:36.776Z,14.40
2023-02-20T14:36:58.105Z,12.00
2023-02-20T14:42:15.813Z,11.70
2023-02-20T14:47:24.289Z,10.50
2023-02-20T14:52:34.652Z,16.60
2023-02-20T14:57:42.975Z,9.60
2023-02-20T15:02:55.503Z,12.80
2023-02-20T15:14:54.664Z,9.90
2023-02-20T15:20:10.326Z,11.30
2023-02-20T15:25:32.253Z,7.00
2023-02-20T15:31:03.519Z,13.30
2023-02-20T15:36:26.578Z,13.40
2023-02-20T15:41:34.081Z,10.50
2023-02-20T15:46:41.847Z,8.60
2023-02-20T15:51:54.043Z,6.30
2023-02-20T15:57:03.818Z,4.90
2023-02-20T16:03:02.650Z,8.70
2023-02-20T16:08:20.690Z,7.50
2023-02-20T16:13:30.834Z,5.50
2023-02-20T16:18:38.117Z,6.70
2023-02-20T16:23:48.424Z,7.00
2023-02-20T16:28:59.500Z,6.40
2023-02-20T16:41:02.989Z,4.70
2023-02-20T16:46:12.297Z,6.30
2023-02-20T16:51:21.917Z,6.60
2023-02-20T16:56:29.209Z,7.10
2023-02-20T17:01:39.102Z,6.30
2023-02-20T17:06:48.739Z,5.20
2023-02-20T17:11:57.582Z,4.80
2023-02-20T17:17:06.811Z,5.30
2023-02-20T17:22:14.846Z,3.50
2023-02-20T17:27:23.073Z,3.80
2023-02-20T17:32:33.420Z,3.80
2023-02-20T17:37:45.561Z,4.40
2023-02-20T17:43:10.747Z,4.50
2023-02-20T17:48:42.238Z,3.30
2023-02-20T17:53:51.353Z,3.20
2023-02-20T17:58:59.376Z,3.50
2023-02-20T18:04:11.985Z,4.90
2023-02-20T18:23:26.850Z,3.40
2023-02-20T18:28:35.190Z,5.00
2023-02-20T18:40:47.655Z,2.90
2023-02-20T18:45:58.065Z,3.30
2023-02-20T18:51:06.322Z,3.40
2023-02-20T18:56:17.115Z,5.40
2023-02-20T19:01:30.883Z,3.60
2023-02-20T19:06:44.640Z,2.90
2023-02-20T19:17:36.018Z,3.40
2023-02-20T19:29:30.561Z,3.20
2023-02-20T19:34:42.626Z,1.50
2023-02-20T19:39:53.614Z,1.80
2023-02-20T19:45:11.605Z,1.30
2023-02-20T19:50:30.578Z,3.10
2023-02-20T19:55:38.257Z,2.00
2023-02-20T20:00:49.221Z,1.90
2023-02-20T20:06:29.584Z,3.00
2023-02-20T20:11:39.681Z,1.90
2023-02-20T20:16:50.472Z,10.70
2023-02-20T20:36:05.076Z,3.40
2023-02-20T20:41:15.675Z,1.20
2023-02-20T20:46:26.101Z,0.90
2023-02-20T20:51:34.116Z,0.80
2023-02-20T20:56:47.646Z,2.00
2023-02-20T21:01:55.190Z,2.70
2023-02-20T21:07:02.743Z,0.80
2023-02-20T21:12:15.563Z,1.70
2023-02-20T21:17:23.252Z,4.20
2023-02-20T21:22:31.257Z,1.80
2023-02-20T21:32:48.860Z,5.00
2023-02-20T21:38:03.615Z,2.70
2023-02-20T21:43:40.598Z,2.90
2023-02-20T21:48:48.962Z,2.20
2023-02-20T21:53:56.696Z,1.70
2023-02-20T21:59:05.158Z,2.60
2023-02-20T22:04:14.561Z,2.70
2023-02-20T22:09:39.264Z,3.90
2023-02-20T22:15:04.359Z,5.50
2023-02-20T22:20:32.000Z,7.00
2023-02-20T22:25:56.892Z,1.00
2023-02-20T22:31:24.030Z,5.40
2023-02-20T22:36:49.074Z,12.40
2023-02-20T22:42:18.450Z,1.30
2023-02-20T22:47:46.427Z,4.00
2023-02-20T22:53:11.946Z,1.70
2023-02-20T22:58:36.774Z,2.30
2023-02-20T23:04:01.886Z,7.20
2023-02-20T23:09:27.832Z,12.70
2023-02-20T23:14:53.317Z,4.90
2023-02-20T23:20:18.621Z,3.50
2023-02-20T23:25:43.890Z,5.80
2023-02-20T23:31:08.759Z,4.30
2023-02-20T23:36:33.997Z,2.10
2023-02-20T23:42:02.181Z,11.40
2023-02-20T23:47:27.091Z,8.60
2023-02-20T23:52:52.478Z,6.90
2023-02-20T23:58:17.346Z,9.10
